createdAt,value
2019-05-01T00:00:26.298Z,81.44
2019-05-01T00:03:14.384Z,81.35
2019-05-01T00:05:49.003Z,81.17
2019-05-01T00:08:19.533Z,80.76
2019-05-01T00:10:50.334Z,80.67
2019-05-01T00:13:20.976Z,81.01
2019-05-01T00:15:52.291Z,80.85
2019-05-01T00:18:22.830Z,80.34
2019-05-01T00:20:53.294Z,80.03
2019-05-01T00:23:23.764Z,79.94
2019-05-01T00:25:54.362Z,80.35
2019-05-01T00:28:24.927Z,80.66
2019-05-01T00:30:55.420Z,80.75
2019-05-01T00:33:25.931Z,80.99
2019-05-01T00:35:56.363Z,80.21
2019-05-01T00:38:26.827Z,80.30
2019-05-01T00:40:57.644Z,80.50
2019-05-01T00:43:28.100Z,80.78
2019-05-01T00:45:58.537Z,80.44
2019-05-01T00:48:29.029Z,80.02
2019-05-01T00:50:59.486Z,80.65
2019-05-01T00:53:30.217Z,80.36
2019-05-01T00:56:22.668Z,80.78
2019-05-01T00:59:14.878Z,81.09
2019-05-01T01:02:07.233Z,81.11
2019-05-01T01:04:38.476Z,81.55
2019-05-01T01:07:08.905Z,81.67
2019-05-01T01:09:39.395Z,81.61
2019-05-01T01:12:09.820Z,81.34
2019-05-01T01:14:40.310Z,81.67
2019-05-01T01:17:10.829Z,81.47
2019-05-01T01:19:41.281Z,81.93
2019-05-01T01:22:11.769Z,82.25
2019-05-01T01:24:42.373Z,82.07
2019-05-01T01:27:12.771Z,82.22
2019-05-01T01:29:43.365Z,82.20
2019-05-01T01:32:14.087Z,82.12
2019-05-01T01:34:44.714Z,82.34
2019-05-01T01:37:15.222Z,81.51
2019-05-01T01:39:45.904Z,81.54
2019-05-01T01:42:16.638Z,81.89
2019-05-01T01:44:56.775Z,81.74
2019-05-01T01:47:27.700Z,81.53
2019-05-01T01:49:59.447Z,81.61
2019-05-01T01:52:30.156Z,81.34
2019-05-01T01:55:00.611Z,82.13
2019-05-01T01:57:31.295Z,82.25
2019-05-01T02:00:02.633Z,82.09
2019-05-01T02:02:41.347Z,82.21
2019-05-01T02:05:15.012Z,81.84
2019-05-01T02:07:46.210Z,81.60
2019-05-01T02:13:08.445Z,81.73
2019-05-01T02:13:24.327Z,81.57
2019-05-01T02:15:39.011Z,81.68
2019-05-01T02:18:09.490Z,81.74
2019-05-01T02:20:39.949Z,81.73
2019-05-01T02:23:10.359Z,81.90
2019-05-01T02:25:42.747Z,81.26
2019-05-01T02:28:27.770Z,81.34
2019-05-01T02:31:29.851Z,81.47
2019-05-01T02:34:02.088Z,80.93
2019-05-01T02:36:35.458Z,81.06
2019-05-01T02:39:09.902Z,81.06
2019-05-01T02:41:44.135Z,80.82
2019-05-01T02:44:25.356Z,80.76
2019-05-01T02:46:59.657Z,81.55
2019-05-01T02:49:47.058Z,81.70
2019-05-01T02:52:19.107Z,81.77
2019-05-01T02:54:50.961Z,81.20
2019-05-01T02:57:24.590Z,80.63
2019-05-01T02:59:57.243Z,80.55
2019-05-01T03:02:30.664Z,81.21
2019-05-01T03:05:02.095Z,80.35
2019-05-01T03:07:35.691Z,80.41
2019-05-01T03:10:09.817Z,80.62
2019-05-01T03:12:44.983Z,80.98
2019-05-01T03:15:16.895Z,80.82
2019-05-01T03:18:12.935Z,81.35
2019-05-01T03:20:55.883Z,81.52
2019-05-01T03:23:39.447Z,81.45
2019-05-01T03:26:10.179Z,81.38
2019-05-01T03:28:40.785Z,81.70
2019-05-01T03:31:11.368Z,81.58
2019-05-01T03:33:42.117Z,81.44
2019-05-01T03:36:13.412Z,81.41
2019-05-01T03:38:44.746Z,81.60
2019-05-01T03:41:15.419Z,81.36
2019-05-01T03:43:45.936Z,82.19
2019-05-01T03:46:16.812Z,82.12
2019-05-01T03:48:47.621Z,80.98
2019-05-01T03:51:18.303Z,80.84
2019-05-01T03:53:49.142Z,80.75
2019-05-01T03:56:20.175Z,81.38
2019-05-01T03:58:51.023Z,80.60
2019-05-01T04:01:43.383Z,81.45
2019-05-01T04:04:19.618Z,81.50
2019-05-01T04:06:50.463Z,81.32
2019-05-01T04:09:20.891Z,81.48
2019-05-01T04:11:55.053Z,81.28
2019-05-01T04:14:25.747Z,81.57
2019-05-01T04:17:04.427Z,81.61
2019-05-01T04:19:35.080Z,82.17
2019-05-01T04:22:11.257Z,81.80
2019-05-01T04:24:44.509Z,82.11
2019-05-01T04:27:21.184Z,82.18
2019-05-01T04:30:08.866Z,81.73
2019-05-01T04:32:51.776Z,81.51
2019-05-01T04:35:20.232Z,81.51
2019-05-01T04:37:52.298Z,81.72
2019-05-01T04:40:22.803Z,81.35
2019-05-01T04:42:53.911Z,81.69
2019-05-01T04:45:25.704Z,81.22
2019-05-01T04:47:57.233Z,81.20
2019-05-01T04:50:28.580Z,81.47
2019-05-01T04:52:59.946Z,81.46
2019-05-01T04:55:31.892Z,81.41
2019-05-01T04:58:03.843Z,81.48
2019-05-01T05:00:34.993Z,81.80
2019-05-01T05:03:09.608Z,81.40
2019-05-01T05:05:40.289Z,81.45
2019-05-01T05:08:10.914Z,81.09
2019-05-01T05:10:41.677Z,81.07
2019-05-01T05:13:23.549Z,80.53
2019-05-01T05:16:17.020Z,80.46
2019-05-01T05:18:48.035Z,80.92
2019-05-01T05:41:15.395Z,80.10
2019-05-01T05:43:46.277Z,79.97
2019-05-01T05:46:18.142Z,79.81
2019-05-01T05:48:49.011Z,80.60
2019-05-01T05:51:28.993Z,80.37
2019-05-01T05:54:07.340Z,80.64
2019-05-01T05:56:46.038Z,80.26
2019-05-01T05:59:23.165Z,80.44
2019-05-01T06:02:22.275Z,79.73
2019-05-01T06:05:08.534Z,80.10
2019-05-01T06:08:04.251Z,80.67
2019-05-01T06:10:53.690Z,80.99
2019-05-01T06:13:43.660Z,80.64
2019-05-01T06:16:21.375Z,80.38
2019-05-01T06:19:14.438Z,80.24
2019-05-01T06:22:10.301Z,80.31
2019-05-01T06:24:42.354Z,80.21
2019-05-01T06:27:15.008Z,80.14
2019-05-01T06:29:46.503Z,80.19
2019-05-01T06:32:16.975Z,80.84
2019-05-01T06:34:47.632Z,81.07
2019-05-01T06:37:20.961Z,80.21
2019-05-01T06:39:50.429Z,80.06
2019-05-01T06:42:23.109Z,80.10
2019-05-01T06:44:59.375Z,80.44
2019-05-01T06:47:48.774Z,80.46
2019-05-01T06:50:36.990Z,79.92
2019-05-01T06:53:07.926Z,80.70
2019-05-01T06:55:39.203Z,80.57
2019-05-01T06:58:09.632Z,79.96
2019-05-01T07:00:43.074Z,80.41
2019-05-01T07:03:14.310Z,80.79
2019-05-01T07:05:49.183Z,80.70
2019-05-01T07:08:24.350Z,80.38
2019-05-01T07:10:50.085Z,80.05
2019-05-01T07:13:20.642Z,80.03
2019-05-01T07:15:51.051Z,79.47
2019-05-01T07:18:24.202Z,79.77
2019-05-01T07:20:53.962Z,80.19
2019-05-01T07:23:24.823Z,80.42
2019-05-01T07:25:55.633Z,80.20
2019-05-01T07:28:29.069Z,79.74
2019-05-01T07:31:06.283Z,79.93
2019-05-01T07:33:37.160Z,79.79
2019-05-01T07:36:15.275Z,79.77
2019-05-01T07:38:41.297Z,80.10
2019-05-01T07:41:12.446Z,79.96
2019-05-01T07:43:59.200Z,79.41
2019-05-01T07:46:39.130Z,79.62
2019-05-01T07:49:13.022Z,79.58
2019-05-01T07:51:50.764Z,78.84
2019-05-01T07:54:23.291Z,78.32
2019-05-01T07:56:58.776Z,78.42
2019-05-01T07:59:28.640Z,78.74
2019-05-01T08:02:03.201Z,78.38
2019-05-01T08:04:36.937Z,78.34
2019-05-01T08:07:05.799Z,78.19
2019-05-01T08:09:36.218Z,77.43
2019-05-01T08:12:06.714Z,77.40
2019-05-01T08:14:37.244Z,77.00
2019-05-01T08:17:08.600Z,76.51
2019-05-01T08:20:05.501Z,76.07
2019-05-01T08:22:39.023Z,76.44
2019-05-01T08:25:10.066Z,76.37
2019-05-01T08:27:56.733Z,76.59
2019-05-01T08:30:42.970Z,77.23
2019-05-01T08:33:49.825Z,77.00
2019-05-01T08:36:19.972Z,76.57
2019-05-01T08:38:50.527Z,76.06
2019-05-01T08:41:21.031Z,76.52
2019-05-01T08:43:54.200Z,75.91
2019-05-01T08:46:46.878Z,75.98
2019-05-01T08:49:30.916Z,76.14
2019-05-01T08:52:04.842Z,76.44
2019-05-01T08:54:34.855Z,75.83
2019-05-01T08:57:07.888Z,75.83
2019-05-01T08:59:37.913Z,75.48
2019-05-01T09:02:09.877Z,74.84
2019-05-01T09:04:40.446Z,74.91
2019-05-01T09:07:14.618Z,75.54
2019-05-01T09:09:45.314Z,75.29
2019-05-01T09:12:15.473Z,75.49
2019-05-01T09:14:46.023Z,75.49
2019-05-01T09:17:16.581Z,74.04
2019-05-01T09:19:47.152Z,73.80
2019-05-01T09:22:17.559Z,73.95
2019-05-01T09:24:48.820Z,73.65
2019-05-01T09:27:32.364Z,73.86
2019-05-01T09:30:11.935Z,73.26
2019-05-01T09:32:45.907Z,73.30
2019-05-01T09:35:19.670Z,73.62
2019-05-01T09:37:50.389Z,73.06
2019-05-01T09:40:20.980Z,72.93
2019-05-01T09:42:54.616Z,71.79
2019-05-01T09:45:23.887Z,71.27
2019-05-01T09:47:54.404Z,71.39
2019-05-01T09:50:25.875Z,72.42
2019-05-01T09:53:10.298Z,72.32
2019-05-01T09:55:48.366Z,72.84
2019-05-01T09:58:18.956Z,73.22
2019-05-01T10:00:52.674Z,73.50
2019-05-01T10:03:23.427Z,72.25
2019-05-01T10:05:53.959Z,72.96
2019-05-01T10:08:24.510Z,73.88
2019-05-01T10:10:54.953Z,73.51
2019-05-01T10:13:25.568Z,73.42
2019-05-01T10:15:55.963Z,73.19
2019-05-01T10:18:26.688Z,73.85
2019-05-01T10:20:57.158Z,73.49
2019-05-01T10:23:27.654Z,73.66
2019-05-01T10:25:59.769Z,74.17
2019-05-01T10:28:39.593Z,73.91
2019-05-01T10:31:15.168Z,72.32
2019-05-01T10:33:47.130Z,73.17
2019-05-01T10:36:40.415Z,72.99
2019-05-01T10:39:11.438Z,72.44
2019-05-01T10:41:46.407Z,72.70
2019-05-01T10:44:14.173Z,72.27
2019-05-01T10:46:44.674Z,70.63
2019-05-01T10:49:15.398Z,70.66
2019-05-01T10:51:45.930Z,70.76
2019-05-01T10:54:16.687Z,69.98
2019-05-01T10:56:47.653Z,69.90
2019-05-01T10:59:18.146Z,69.95
2019-05-01T11:01:52.592Z,70.05
2019-05-01T11:04:23.079Z,70.41
2019-05-01T11:06:53.518Z,69.88
2019-05-01T11:09:24.089Z,70.05
2019-05-01T11:11:54.581Z,70.93
2019-05-01T11:14:25.241Z,71.21
2019-05-01T11:16:55.785Z,70.96
2019-05-01T11:19:26.262Z,70.83
2019-05-01T11:21:56.704Z,71.32
2019-05-01T11:24:27.238Z,71.69
2019-05-01T11:26:57.817Z,71.43
2019-05-01T11:29:28.347Z,71.11
2019-05-01T11:32:17.752Z,70.11
2019-05-01T11:35:03.648Z,71.43
2019-05-01T11:38:05.319Z,72.51
2019-05-01T11:40:38.966Z,72.33
2019-05-01T11:43:09.472Z,72.52
2019-05-01T11:45:39.980Z,72.25
2019-05-01T11:48:10.846Z,70.72
2019-05-01T11:50:41.285Z,70.21
2019-05-01T11:53:11.719Z,71.37
2019-05-01T11:55:42.203Z,71.59
2019-05-01T11:58:12.677Z,70.37
2019-05-01T12:00:43.916Z,69.80
2019-05-01T12:03:14.334Z,69.66
2019-05-01T12:05:44.831Z,70.34
2019-05-01T12:08:15.395Z,70.88
2019-05-01T12:10:45.924Z,70.93
2019-05-01T12:13:16.394Z,70.92
2019-05-01T12:15:50.392Z,71.43
2019-05-01T12:18:20.884Z,72.12
2019-05-01T12:20:51.425Z,72.59
2019-05-01T12:23:21.849Z,71.55
2019-05-01T12:25:52.366Z,71.90
2019-05-01T12:28:22.780Z,71.59
2019-05-01T12:30:53.220Z,71.56
2019-05-01T12:33:23.678Z,71.92
2019-05-01T12:36:16.633Z,72.32
2019-05-01T12:40:19.090Z,72.58
2019-05-01T12:43:52.316Z,72.59
2019-05-01T12:46:48.792Z,72.10
2019-05-01T12:50:11.612Z,72.31
2019-05-01T12:54:04.002Z,72.68
2019-05-01T12:59:43.565Z,73.66
2019-05-01T13:06:32.901Z,73.81
2019-05-01T13:09:45.395Z,73.73
2019-05-01T13:12:28.810Z,73.00
2019-05-01T13:16:11.027Z,74.07
2019-05-01T13:27:24.454Z,71.97
2019-05-01T13:38:15.490Z,72.78
2019-05-01T13:40:58.827Z,73.23
2019-05-01T13:43:31.167Z,72.78
2019-05-01T13:46:07.609Z,73.63
2019-05-01T13:49:25.594Z,73.20
2019-05-01T13:51:56.229Z,72.88
2019-05-01T13:55:41.120Z,73.33
2019-05-01T13:58:33.335Z,72.59
2019-05-01T14:01:43.864Z,72.97
2019-05-01T14:05:10.785Z,72.88
2019-05-01T14:07:46.876Z,72.85
2019-05-01T14:10:19.907Z,73.25
2019-05-01T14:12:52.967Z,73.33
2019-05-01T14:15:24.362Z,72.99
2019-05-01T14:17:55.454Z,73.26
2019-05-01T14:20:39.777Z,74.29
2019-05-01T14:23:16.343Z,73.85
2019-05-01T14:26:04.378Z,73.65
2019-05-01T14:28:35.961Z,73.30
2019-05-01T14:31:07.352Z,73.30
2019-05-01T14:33:42.823Z,73.01
2019-05-01T14:36:31.286Z,72.30
2019-05-01T14:39:04.889Z,72.16
2019-05-01T14:41:35.589Z,71.56
2019-05-01T14:44:06.712Z,71.12
2019-05-01T14:46:37.164Z,71.19
2019-05-01T14:49:07.651Z,71.54
2019-05-01T14:51:38.303Z,71.76
2019-05-01T14:54:08.840Z,71.82
2019-05-01T14:56:39.347Z,71.49
2019-05-01T14:59:09.775Z,71.80
2019-05-01T15:01:40.279Z,71.71
2019-05-01T15:04:10.906Z,71.56
2019-05-01T15:06:41.353Z,72.24
2019-05-01T15:09:12.085Z,72.26
2019-05-01T15:11:43.881Z,72.04
2019-05-01T15:14:36.489Z,71.98
2019-05-01T15:17:28.974Z,71.39
2019-05-01T15:20:04.704Z,71.58
2019-05-01T15:22:35.208Z,71.47
2019-05-01T15:25:06.048Z,72.11
2019-05-01T15:27:36.537Z,71.52
2019-05-01T15:30:08.444Z,72.27
2019-05-01T15:32:38.905Z,71.87
2019-05-01T15:35:09.644Z,72.14
2019-05-01T15:37:40.111Z,71.37
2019-05-01T15:40:17.875Z,71.05
2019-05-01T15:43:01.487Z,72.05
2019-05-01T15:45:31.934Z,70.88
2019-05-01T15:48:02.417Z,70.69
2019-05-01T15:50:32.951Z,70.79
2019-05-01T15:53:03.394Z,70.91
2019-05-01T15:55:33.940Z,71.02
2019-05-01T15:58:04.433Z,71.33
2019-05-01T16:00:34.960Z,71.30
2019-05-01T16:03:06.321Z,70.95
2019-05-01T16:05:36.807Z,71.50
2019-05-01T16:08:09.949Z,71.69
2019-05-01T16:10:56.659Z,71.14
2019-05-01T16:13:27.154Z,71.87
2019-05-01T16:15:57.712Z,70.97
2019-05-01T16:18:28.268Z,71.18
2019-05-01T16:20:58.806Z,70.89
2019-05-01T16:23:29.311Z,70.69
2019-05-01T16:25:59.834Z,70.27
2019-05-01T16:28:30.309Z,70.21
2019-05-01T16:31:00.876Z,70.85
2019-05-01T16:33:31.410Z,70.78
2019-05-01T16:36:02.071Z,70.76
2019-05-01T16:38:50.739Z,70.73
2019-05-01T16:41:21.264Z,71.22
2019-05-01T16:43:51.752Z,70.98
2019-05-01T16:46:22.258Z,71.03
2019-05-01T16:48:52.781Z,70.97
2019-05-01T16:51:23.322Z,70.93
2019-05-01T16:53:53.816Z,70.27
2019-05-01T16:56:24.332Z,70.08
2019-05-01T16:58:54.825Z,70.20
2019-05-01T17:01:38.059Z,70.15
2019-05-01T17:04:25.734Z,70.05
2019-05-01T17:07:15.122Z,70.71
2019-05-01T17:10:04.510Z,70.98
2019-05-01T17:12:41.572Z,70.98
2019-05-01T17:15:12.717Z,70.97
2019-05-01T17:17:43.655Z,70.95
2019-05-01T17:20:14.617Z,71.02
2019-05-01T17:22:46.225Z,71.53
2019-05-01T17:25:17.614Z,71.76
2019-05-01T17:27:48.286Z,72.30
2019-05-01T17:30:24.588Z,71.88
2019-05-01T17:32:55.102Z,72.47
2019-05-01T17:35:36.900Z,72.59
2019-05-01T17:38:10.984Z,72.77
2019-05-01T17:40:41.417Z,72.35
2019-05-01T17:43:13.377Z,72.40
2019-05-01T17:45:44.213Z,72.92
2019-05-01T17:48:17.146Z,73.29
2019-05-01T17:50:47.628Z,73.15
2019-05-01T17:53:18.357Z,73.24
2019-05-01T17:55:48.825Z,73.55
2019-05-01T17:58:19.511Z,73.29
2019-05-01T18:01:03.551Z,73.67
2019-05-01T18:03:56.486Z,73.42
2019-05-01T18:06:32.439Z,73.78
2019-05-01T18:09:03.669Z,74.14
2019-05-01T18:11:35.050Z,74.17
2019-05-01T18:14:05.996Z,74.30
2019-05-01T18:16:36.521Z,74.65
2019-05-01T18:19:09.925Z,74.78
2019-05-01T18:21:46.798Z,74.47
2019-05-01T18:24:47.571Z,74.71
2019-05-01T18:27:37.038Z,74.99
2019-05-01T18:30:21.792Z,75.15
2019-05-01T18:32:54.643Z,75.20
2019-05-01T18:35:25.321Z,75.68
2019-05-01T18:38:01.550Z,76.35
2019-05-01T18:40:36.306Z,76.67
2019-05-01T18:43:06.938Z,76.97
2019-05-01T18:45:56.610Z,76.72
2019-05-01T18:48:27.410Z,76.53
2019-05-01T18:50:57.947Z,77.06
2019-05-01T18:53:30.909Z,77.25
2019-05-01T18:56:05.472Z,77.76
2019-05-01T18:58:33.643Z,78.17
2019-05-01T19:01:08.803Z,78.10
2019-05-01T19:03:37.069Z,78.33
2019-05-01T19:06:08.703Z,78.23
2019-05-01T19:08:39.220Z,77.91
2019-05-01T19:11:28.885Z,78.14
2019-05-01T19:13:59.601Z,78.42
2019-05-01T19:16:30.082Z,78.75
2019-05-01T19:19:00.555Z,79.02
2019-05-01T19:21:32.622Z,79.20
2019-05-01T19:24:05.946Z,79.03
2019-05-01T19:26:38.246Z,79.26
2019-05-01T19:29:08.217Z,79.26
2019-05-01T19:31:38.678Z,79.59
2019-05-01T19:34:09.276Z,79.57
2019-05-01T19:36:45.173Z,79.59
2019-05-01T19:39:13.626Z,79.56
2019-05-01T19:41:49.247Z,79.75
2019-05-01T19:44:18.949Z,79.28
2019-05-01T19:46:48.600Z,79.55
2019-05-01T19:49:24.683Z,79.74
2019-05-01T19:51:55.479Z,80.27
2019-05-01T19:54:27.892Z,79.99
2019-05-01T19:56:57.604Z,79.80
2019-05-01T19:59:28.323Z,80.57
2019-05-01T20:01:58.849Z,80.93
2019-05-01T20:04:29.309Z,81.02
2019-05-01T20:06:59.855Z,81.47
2019-05-01T20:09:30.827Z,81.25
2019-05-01T20:12:02.714Z,81.15
2019-05-01T20:14:33.292Z,81.38
2019-05-01T20:17:04.655Z,81.62
2019-05-01T20:19:37.679Z,81.63
2019-05-01T20:22:08.174Z,81.47
2019-05-01T20:24:39.935Z,81.80
2019-05-01T20:27:15.704Z,82.07
2019-05-01T20:29:46.268Z,82.39
2019-05-01T20:32:21.130Z,82.54
2019-05-01T20:34:52.672Z,82.63
2019-05-01T20:37:21.221Z,82.99
2019-05-01T20:39:51.874Z,83.18
2019-05-01T20:42:22.445Z,82.91
2019-05-01T20:45:03.957Z,82.89
2019-05-01T20:47:34.956Z,82.99
2019-05-01T20:49:57.889Z,83.17
2019-05-01T20:52:38.057Z,83.41
2019-05-01T20:55:08.815Z,83.33
2019-05-01T20:57:41.477Z,83.76
2019-05-01T21:00:16.761Z,84.25
2019-05-01T21:02:47.449Z,84.06
2019-05-01T21:05:26.690Z,84.79
2019-05-01T21:08:07.756Z,84.50
2019-05-01T21:10:55.610Z,84.48
2019-05-01T21:13:26.864Z,84.19
2019-05-01T21:16:01.781Z,84.15
2019-05-01T21:18:29.846Z,84.44
2019-05-01T21:21:03.425Z,84.76
2019-05-01T21:23:33.691Z,84.85
2019-05-01T21:26:04.305Z,84.66
2019-05-01T21:28:36.714Z,84.83
2019-05-01T21:31:07.202Z,85.07
2019-05-01T21:33:40.788Z,85.14
2019-05-01T21:36:10.026Z,85.37
2019-05-01T21:38:40.578Z,85.03
2019-05-01T21:41:11.057Z,85.12
2019-05-01T21:43:42.505Z,85.48
2019-05-01T21:46:13.143Z,85.57
2019-05-01T21:48:43.711Z,86.13
2019-05-01T21:51:14.153Z,85.81
2019-05-01T21:53:46.382Z,85.69
2019-05-01T21:56:16.980Z,85.92
2019-05-01T21:58:47.604Z,85.96
2019-05-01T22:01:18.164Z,85.88
2019-05-01T22:03:57.142Z,86.02
2019-05-01T22:06:25.775Z,86.17
2019-05-01T22:08:56.286Z,86.83
2019-05-01T22:11:26.808Z,87.16
2019-05-01T22:14:06.590Z,87.55
2019-05-01T22:16:38.997Z,87.17
2019-05-01T22:19:34.425Z,86.83
2019-05-01T22:22:12.952Z,86.84
2019-05-01T22:25:04.355Z,86.82
2019-05-01T22:27:42.300Z,86.78
2019-05-01T22:30:34.958Z,87.37
2019-05-01T22:33:06.079Z,87.39
2019-05-01T22:35:39.720Z,87.81
2019-05-01T22:38:10.170Z,87.88
2019-05-01T22:41:06.028Z,87.91
2019-05-01T22:43:31.060Z,88.36
2019-05-01T22:46:03.385Z,88.22
2019-05-01T22:48:33.913Z,88.17
2019-05-01T22:51:13.776Z,87.94
2019-05-01T22:53:44.256Z,88.31
2019-05-01T22:56:19.272Z,88.12
2019-05-01T22:59:16.107Z,88.26
2019-05-01T23:02:28.433Z,88.23
2019-05-01T23:05:07.295Z,88.22
2019-05-01T23:07:37.810Z,88.55
2019-05-01T23:10:09.239Z,88.72
2019-05-01T23:12:39.847Z,88.38
2019-05-01T23:15:19.310Z,88.34
2019-05-01T23:17:49.753Z,88.21
2019-05-01T23:20:20.251Z,88.23
2019-05-01T23:22:50.812Z,88.23
2019-05-01T23:25:21.414Z,88.21
2019-05-01T23:27:51.862Z,88.49
2019-05-01T23:30:23.171Z,88.46
2019-05-01T23:32:53.605Z,88.30
2019-05-01T23:35:24.064Z,88.78
2019-05-01T23:37:54.592Z,89.07
2019-05-01T23:40:25.010Z,88.64
2019-05-01T23:42:55.611Z,88.78
2019-05-01T23:45:26.097Z,89.13
2019-05-01T23:47:56.524Z,89.46
2019-05-01T23:50:27.091Z,89.64
2019-05-01T23:52:57.617Z,90.09
2019-05-01T23:55:28.024Z,90.37
2019-05-01T23:57:58.412Z,90.29
